Aeroporto :
LOGIN :

Iscrizione | Disclaimer

   EN    FR    IT 

 










Sommario :    VFR   VFR Marginale   IFR   IFR Intensivo   IFR Molto Intensivo
Visibilità : 
Base nubi : 
>= 8 km
>= 3000ft
5 / 8 km
1000 / 3000 ft
1500m / 5 km
500 / 1000 ft
800 / 1500m
200 / 500 ft
< 800m
< 200 ft
Simboli :   Temporali  Nebbia  Neve Forte  Precipitazioni Forti  Vento > 20 kt
SIGMETs :   Varie  Temporali  Ghiacco  Turbolenza  Onda orograficha  Ceneri Vulcaniche






- Altitudine del aeroporto : 84 ft


LFBC - Cazaux

ULTIMO METAR :
  • 140830Z AUTO 22008KT CAVOK 09/05 Q0999 NOSIG

METARs OBSOLETI :
  • 140800Z AUTO 24006KT 9999 FEW034 OVC120 08/04 Q0999 TEMPO 27015G25KT 3000 TSRA BKN030CB
  • 140730Z AUTO 25004KT 9999 FEW048/// SCT100/// OVC130/// ///TCU 07/05 Q0999 TEMPO 27015G25KT 3000 TSRA BKN030CB
  • 140700Z AUTO 28006KT 9999 ///TCU 07/04 Q0999 TEMPO 27015G25KT 3000 TSRA BKN030CB
  • 140630Z AUTO 29015KT 240V330 9999 -RA FEW028/// SCT043/// BKN060/// ///CB 07/05 Q0999
  • 140600Z AUTO 26009KT 230V290 9999 FEW042/// SCT056/// OVC160/// ///CB 10/04 Q0999

TAF TAF LFBC
Valido dal 14 a 06 ore il 15 a 03 ore UTC


140615Z 1406/1503 27010KT 9999 SCT040 BKN050
PROB40
TEMPO 1406/1409 27015G25KT 3000 TSRA BKN030CB
TEMPO 1412/1503 3000 SHRA BKN025CB BKN040
BECMG 1417/1419 09003KT



MetMap, La meteo Aeronautica in un colpo d'occhio ! - Copyright ORBIFLY Dicembre 2007 - Disclaimer

ORBIFLY MET'MAP TEAM :

Programmazione e sviluppo : Alexandra Zaïnal
Concezione e sviluppo : Baudouin d'Aumeries
Co-Programmazione e sviluppo : Marc-Olivier Méhu
Supporto tecnico e logistico : Manuel Goepfert
Aiuto per la traduzione : Arnaldo La Scala

Contatto : metmap@orbifly.com




FONTI E CREDITI :

   NOAA